| time (UTC) | temp C | wind direction | speed KPH | gust KPH | rain 1hr cm | rain 24hr cm | rain mn cm | humidity % | barometer mb |
| 20260510071542 | 23 | 121 | 8.0 | 11.3 | 0.00 | 0.00 | 0.00 | 89 | 1012.6 |
| 20260510070046 | 23 | 151 | 8.0 | 11.3 | 0.00 | 0.00 | 0.00 | 89 | 1012.6 |
| 20260510064550 | 23 | 144 | 8.0 | 14.5 | 0.00 | 0.00 | 0.00 | 89 | 1012.5 |
| 20260510063032 | 23 | 118 | 8.0 | 14.5 | 0.00 | 0.00 | 0.00 | 89 | 1012.7 |
| 20260510061600 | 23 | 123 | 9.7 | 20.9 | 0.00 | 0.00 | 0.00 | 89 | 1012.9 |
| 20260510061508 | 23 | 120 | 11.3 | 20.9 | 0.00 | 0.00 | 0.00 | 89 | 1013.0 |
| 20260510060005 | 23 | 156 | 12.9 | 25.7 | 0.00 | 0.00 | 0.00 | 89 | 1012.7 |
| 20260510054521 | 23 | 140 | 14.5 | 25.7 | 0.00 | 0.00 | 0.00 | 89 | 1012.9 |
| 20260510053030 | 23 | 134 | 11.3 | 17.7 | 0.00 | 0.00 | 0.00 | 88 | 1013.4 |
| 20260510051524 | 23 | 117 | 8.0 | 14.5 | 0.00 | 0.00 | 0.00 | 86 | 1013.6 |
| 20260510050027 | 23 | 115 | 8.0 | 14.5 | 0.00 | 0.00 | 0.00 | 85 | 1013.5 |
| 20260510044540 | 24 | 128 | 12.9 | 17.7 | 0.00 | 0.00 | 0.00 | 86 | 1013.2 |
| 20260510043009 | 24 | 128 | 9.7 | 12.9 | 0.00 | 0.00 | 0.00 | 84 | 1013.4 |
| 20260510041509 | 24 | 118 | 8.0 | 17.7 | 0.00 | 0.00 | 0.00 | 83 | 1013.4 |
| 20260510040008 | 25 | 132 | 11.3 | 17.7 | 0.00 | 0.00 | 0.00 | 83 | 1013.2 |
| 20260510034513 | 25 | 116 | 11.3 | 20.9 | 0.00 | 0.00 | 0.00 | 82 | 1013.5 |
| 20260510033015 | 25 | 101 | 9.7 | 16.1 | 0.00 | 0.00 | 0.00 | 80 | 1013.5 |
| 20260510031517 | 25 | 119 | 11.3 | 19.3 | 0.00 | 0.00 | 0.00 | 79 | 1013.1 |
| 20260510030019 | 25 | 125 | 12.9 | 19.3 | 0.00 | 0.00 | 0.00 | 78 | 1012.6 |
| 20260510024523 | 25 | 141 | 11.3 | 17.7 | 0.00 | 0.00 | 0.00 | 77 | 1012.5 |
| 20260510023025 | 26 | 127 | 11.3 | 14.5 | 0.00 | 0.00 | 0.00 | 76 | 1012.2 |
| 20260510021534 | 26 | 96 | 8.0 | 17.7 | 0.00 | 0.00 | 0.00 | 77 | 1011.8 |
| 20260510020033 | 26 | 144 | 11.3 | 14.5 | 0.00 | 0.00 | 0.00 | 76 | 1011.2 |
| 20260510014540 | 27 | 162 | 14.5 | 22.5 | 0.00 | 0.00 | 0.00 | 75 | 1010.5 |
| 20260510013038 | 27 | 157 | 6.4 | 17.7 | 0.00 | 0.00 | 0.00 | 75 | 1010.5 |
| 20260510011541 | 27 | 155 | 8.0 | 14.5 | 0.00 | 0.00 | 0.00 | 75 | 1010.4 |
| 20260510010043 | 27 | 335 | 9.7 | 17.7 | 0.00 | 0.00 | 0.00 | 72 | 1010.6 |
| 20260510004548 | 29 | 145 | 9.7 | 14.5 | 0.00 | 0.00 | 0.00 | 74 | 1009.9 |
| 20260510003059 | 29 | 136 | 6.4 | 8.0 | 0.00 | 0.00 | 0.00 | 75 | 1010.3 |
| 20260510001559 | 30 | 136 | 6.4 | 11.3 | 0.00 | 0.00 | 0.00 | 74 | 1010.0 |
| 20260510000007 | 30 | 142 | 9.7 | 14.5 | 0.00 | 0.00 | 0.00 | 72 | 1009.8 |
| 20260509234507 | 30 | 128 | 9.7 | 16.1 | 0.00 | 0.00 | 0.00 | 72 | 1009.6 |
| 20260509233011 | 30 | 141 | 11.3 | 16.1 | 0.00 | 0.00 | 0.00 | 72 | 1009.9 |
| 20260509231518 | 30 | 175 | 8.0 | 16.1 | 0.00 | 0.00 | 0.00 | 74 | 1009.8 |
| 20260509230023 | 30 | 140 | 9.7 | 16.1 | 0.00 | 0.00 | 0.00 | 75 | 1009.7 |
| 20260509224524 | 30 | 132 | 8.0 | 16.1 | 0.00 | 0.00 | 0.00 | 75 | 1009.6 |
| 20260509223025 | 30 | 136 | 6.4 | 12.9 | 0.00 | 0.00 | 0.00 | 78 | 1009.4 |
| 20260509221535 | 30 | 250 | 8.0 | 16.1 | 0.00 | 0.00 | 0.00 | 77 | 1009.4 |
| 20260509220034 | 30 | 78 | 0.0 | 8.0 | 0.00 | 0.00 | 0.00 | 81 | 1009.5 |
| 20260509214548 | 30 | 317 | 1.6 | 9.7 | 0.00 | 0.00 | 0.00 | 79 | 1009.5 |
| 20260509213044 | 30 | 286 | 3.2 | 11.3 | 0.00 | 0.00 | 0.00 | 80 | 1009.4 |
| 20260509211552 | 30 | 233 | 9.7 | 16.1 | 0.00 | 0.00 | 0.00 | 78 | 1009.4 |
| 20260509210059 | 29 | 310 | 3.2 | 11.3 | 0.00 | 0.00 | 0.00 | 80 | 1009.6 |
| 20260509204600 | 29 | 336 | 8.0 | 12.9 | 0.00 | 0.00 | 0.00 | 80 | 1009.8 |
| 20260509204502 | 29 | 293 | 9.7 | 12.9 | 0.00 | 0.00 | 0.00 | 80 | 1009.7 |
| 20260509203001 | 28 | 333 | 8.0 | 11.3 | 0.00 | 0.00 | 0.00 | 81 | 1010.0 |
| 20260509201504 | 28 | 298 | 6.4 | 11.3 | 0.00 | 0.00 | 0.00 | 83 | 1010.1 |
| 20260509200004 | 28 | 288 | 8.0 | 12.9 | 0.00 | 0.00 | 0.00 | 83 | 1010.3 |
| 20260509194508 | 27 | 298 | 3.2 | 12.9 | 0.00 | 0.00 | 0.00 | 85 | 1010.4 |
| 20260509193012 | 28 | 293 | 8.0 | 12.9 | 0.00 | 0.00 | 0.00 | 85 | 1010.6 |
| 20260509191517 | 27 | 289 | 9.7 | 14.5 | 0.00 | 0.00 | 0.00 | 86 | 1010.5 |
| 20260509190022 | 27 | 311 | 12.9 | 17.7 | 0.00 | 0.00 | 0.00 | 86 | 1010.5 |
| 20260509184535 | 27 | 302 | 8.0 | 17.7 | 0.00 | 0.00 | 0.00 | 87 | 1010.6 |
| 20260509183030 | 26 | 219 | 3.2 | 11.3 | 0.00 | 0.00 | 0.00 | 89 | 1010.8 |
| 20260509181530 | 26 | 312 | 6.4 | 11.3 | 0.00 | 0.00 | 0.00 | 89 | 1011.2 |
| 20260509180032 | 26 | 336 | 8.0 | 12.9 | 0.00 | 0.00 | 0.00 | 89 | 1011.4 |
| 20260509174534 | 26 | 355 | 8.0 | 14.5 | 0.00 | 0.00 | 0.00 | 91 | 1011.8 |
| 20260509173044 | 25 | 324 | 9.7 | 14.5 | 0.00 | 0.00 | 0.00 | 91 | 1012.1 |
| 20260509171541 | 25 | 306 | 8.0 | 11.3 | 0.00 | 0.00 | 0.00 | 92 | 1012.3 |
| 20260509170032 | 25 | 24 | 1.6 | 8.0 | 0.00 | 0.00 | 0.00 | 93 | 1012.3 |
| 20260509164537 | 25 | 189 | 4.8 | 9.7 | 0.00 | 0.00 | 0.00 | 93 | 1012.4 |
| 20260509163021 | 25 | 151 | 8.0 | 11.3 | 0.00 | 0.00 | 0.00 | 93 | 1012.4 |
| 20260509161529 | 25 | 150 | 4.8 | 11.3 | 0.00 | 0.00 | 0.00 | 93 | 1012.3 |
| 20260509160028 | 25 | 135 | 4.8 | 12.9 | 0.00 | 0.00 | 0.00 | 93 | 1012.1 |
| 20260509154536 | 25 | 151 | 8.0 | 12.9 | 0.00 | 0.00 | 0.00 | 93 | 1011.9 |
| 20260509153038 | 25 | 189 | 3.2 | 8.0 | 0.00 | 0.00 | 0.00 | 94 | 1012.1 |
| 20260509151544 | 24 | 132 | 6.4 | 14.5 | 0.00 | 0.00 | 0.00 | 94 | 1011.7 |
| 20260509150100 | 24 | 134 | 11.3 | 17.7 | 0.00 | 0.00 | 0.00 | 94 | 1011.4 |
| 20260509144656 | 24 | 150 | 12.9 | 20.9 | 0.00 | 0.00 | 0.00 | 94 | 1011.5 |
| 20260509143051 | 24 | 144 | 11.3 | 19.3 | 0.00 | 0.00 | 0.00 | 94 | 1011.6 |
| 20260509141600 | 23 | 113 | 4.8 | 11.3 | 0.00 | 0.00 | 0.00 | 94 | 1011.5 |
| 20260509141505 | 23 | 113 | 3.2 | 11.3 | 0.00 | 0.00 | 0.00 | 94 | 1011.6 |
| 20260509140007 | 24 | 117 | 6.4 | 9.7 | 0.00 | 0.03 | 0.00 | 94 | 1011.2 |
| 20260509134512 | 24 | 92 | 4.8 | 9.7 | 0.00 | 0.03 | 0.00 | 94 | 1011.4 |
| 20260509133019 | 23 | 290 | 3.2 | 9.7 | 0.00 | 0.03 | 0.00 | 94 | 1012.2 |
| 20260509131522 | 23 | 297 | 4.8 | 9.7 | 0.00 | 0.03 | 0.00 | 94 | 1012.4 |
| 20260509130023 | 23 | 249 | 8.0 | 11.3 | 0.00 | 0.10 | 0.00 | 94 | 1012.3 |
| 20260509124526 | 23 | 164 | 6.4 | 8.0 | 0.00 | 0.10 | 0.00 | 94 | 1012.3 |
| 20260509123030 | 23 | 274 | 6.4 | 12.9 | 0.00 | 0.10 | 0.00 | 94 | 1012.1 |
| 20260509121535 | 23 | 150 | 0.0 | 6.4 | 0.00 | 0.10 | 0.00 | 93 | 1012.1 |
| 20260509120040 | 23 | 38 | 0.0 | 0.0 | 0.00 | 0.10 | 0.00 | 93 | 1012.4 |
| 20260509114545 | 23 | 355 | 0.0 | 1.6 | 0.00 | 0.10 | 0.00 | 93 | 1012.1 |
| 20260509113054 | 23 | 355 | 0.0 | 6.4 | 0.00 | 0.10 | 0.00 | 93 | 1011.4 |
| 20260509111555 | 23 | 355 | 0.0 | 0.0 | 0.00 | 0.10 | 0.00 | 93 | 1011.6 |
| 20260509110004 | 23 | 355 | 0.0 | 0.0 | 0.00 | 0.10 | 0.00 | 94 | 1011.7 |
| 20260509104527 | 23 | 58 | 1.6 | 6.4 | 0.00 | 0.10 | 0.00 | 93 | 1011.0 |
| 20260509103011 | 23 | 96 | 0.0 | 1.6 | 0.00 | 0.10 | 0.00 | 93 | 1011.4 |
| 20260509101517 | 23 | 98 | 0.0 | 0.0 | 0.00 | 0.10 | 0.00 | 93 | 1011.2 |
| 20260509100029 | 23 | 98 | 0.0 | 0.0 | 0.00 | 0.10 | 0.00 | 93 | 1011.1 |
| 20260509094533 | 23 | 98 | 0.0 | 0.0 | 0.00 | 0.10 | 0.00 | 93 | 1011.1 |
| 20260509093031 | 23 | 98 | 0.0 | 0.0 | 0.00 | 0.10 | 0.00 | 93 | 1011.0 |
| 20260509091532 | 23 | 98 | 0.0 | 0.0 | 0.00 | 0.10 | 0.00 | 93 | 1010.9 |
| 20260509090035 | 23 | 98 | 0.0 | 6.4 | 0.00 | 0.10 | 0.00 | 93 | 1011.0 |
| 20260509084535 | 23 | 98 | 4.8 | 9.7 | 0.00 | 0.10 | 0.00 | 94 | 1010.9 |
| 20260509083040 | 23 | 89 | 6.4 | 17.7 | 0.00 | 0.10 | 0.00 | 94 | 1010.9 |
| 20260509081547 | 23 | 146 | 11.3 | 16.1 | 0.00 | 0.10 | 0.00 | 94 | 1010.9 |
| 20260509080057 | 23 | 134 | 11.3 | 16.1 | 0.00 | 0.10 | 0.00 | 94 | 1010.7 |
| 20260509074556 | 23 | 121 | 8.0 | 9.7 | 0.00 | 0.10 | 0.00 | 93 | 1011.0 |
| 20260509073054 | 23 | 136 | 8.0 | 11.3 | 0.00 | 0.10 | 0.00 | 93 | 1011.4 |